Pagrindinis puslapis
METAR-TAF:

METAR-TAF

Oro uostai :

Valdivija, Čilė

platuma: 39-37S, ilguma: 073-05W, Aukštis: 19 m

Dabartinis oras

Ataskaita buvo paskelbta 1 valandą ir 59 minutes, ne 11:00 UTC
Ramus vėjas
Temperatūra 13°C
Drėgmė 100%
Slėgis 1016 hPa
Matomumas: 7000 m
Apsiniaukę ne aukštis 1200 ft
lietus

METAR: SCVD 231100Z AUTO 00000KT 7000 -RA OVC012 13/13 Q1016

Laikas: 09:59 (12:59 UTC)


TAF: trūkstamas

Orai ataskaitas ir orų prognozės (METAR, TAF).

turimą stotys yra geltonos ir raudonos taškus žemėlapyje.

Perkelti pele per norėdami pamatyti stoties vardą.

Tada spustelėkite, norėdami matyti oro stebėjimo ir prognozės.

Norėdami pakeisti žemėlapį: spustelėkite ant žalios mygtukų su juodo kryžiaus žemyn,; žalią mygtuką su brūkšneliu, jei norite nutolinti; arba žalių rodyklių gretimoms žemėlapius.


METAR-TAF: